Time;durP1;ratioP1;P1;durP2;ratioP2;P2;SDS_P1;SDS_P2;PMS_P1;PMS_P2;Temp;Humidity;BMP_temperature;BMP_pressure;BME280_temperature;BME280_humidity;BME280_pressure;Samples;Min_cycle;Max_cycle;Signal;HPM_P1;HPM_P2
2022/09/08 00:00:57;;;;;;;15.07;11.70;;;;;;;;;;5073096;28;20161;-61
2022/09/08 00:03:24;;;;;;;13.75;12.25;;;;;;;;;;5073110;28;20032;-61
2022/09/08 00:05:56;;;;;;;14.75;12.40;;;;;;;;;;5077523;28;20410;-61
2022/09/08 00:08:23;;;;;;;17.90;14.88;;;;;;;;;;5071932;28;20877;-61
2022/09/08 00:10:50;;;;;;;16.92;12.32;;;;;;;;;;5051221;28;20442;-61
2022/09/08 00:13:17;;;;;;;19.45;13.93;;;;;;;;;;5075180;28;20647;-61
2022/09/08 00:15:43;;;;;;;17.77;13.82;;;;;;;;;;5070852;28;20044;-61
2022/09/08 00:18:09;;;;;;;14.25;12.05;;;;;;;;;;5070299;28;20120;-61
2022/09/08 00:20:35;;;;;;;14.15;11.27;;;;;;;;;;5077975;28;20475;-61
2022/09/08 00:23:01;;;;;;;14.18;12.48;;;;;;;;;;5079817;28;20067;-61
2022/09/08 00:25:27;;;;;;;16.73;14.65;;;;;;;;;;5081837;28;20171;-61
2022/09/08 00:27:53;;;;;;;17.65;13.70;;;;;;;;;;5080189;28;20044;-61
2022/09/08 00:30:20;;;;;;;14.00;12.50;;;;;;;;;;5076827;28;20564;-61
2022/09/08 00:32:46;;;;;;;13.25;11.90;;;;;;;;;;5074394;28;20067;-61
2022/09/08 00:35:14;;;;;;;12.65;11.30;;;;;;;;;;5079002;28;20242;-61
2022/09/08 00:37:43;;;;;;;13.73;10.80;;;;;;;;;;5078009;28;20036;-60
2022/09/08 00:40:10;;;;;;;14.30;12.07;;;;;;;;;;5065756;28;20036;-61
2022/09/08 00:42:36;;;;;;;12.70;10.05;;;;;;;;;;5064679;28;20108;-61
2022/09/08 00:45:02;;;;;;;14.55;12.57;;;;;;;;;;5068052;28;20118;-61
2022/09/08 00:47:54;;;;;;;15.02;11.00;;;;;;;;;;5077615;28;20040;-61
2022/09/08 00:50:22;;;;;;;12.40;10.93;;;;;;;;;;5070400;28;20131;-61
2022/09/08 00:52:50;;;;;;;15.77;12.05;;;;;;;;;;5066662;28;20040;-61
2022/09/08 00:55:17;;;;;;;13.85;11.02;;;;;;;;;;5068475;28;20075;-61
2022/09/08 00:57:44;;;;;;;13.10;11.70;;;;;;;;;;5073910;28;20522;-61
2022/09/08 01:00:11;;;;;;;12.13;9.90;;;;;;;;;;5080694;28;20032;-61
2022/09/08 01:02:37;;;;;;;13.63;11.60;;;;;;;;;;5075017;28;20059;-61
2022/09/08 01:05:06;;;;;;;14.32;11.52;;;;;;;;;;5075493;28;20059;-61
2022/09/08 01:13:32;;;;;;;;;;;;;;;;;;5072915;28;20075;-61
2022/09/08 01:15:59;;;;;;;12.18;9.88;;;;;;;;;;5067582;28;19927;-61
2022/09/08 01:18:25;;;;;;;11.80;9.48;;;;;;;;;;5078863;28;20075;-61
2022/09/08 01:21:06;;;;;;;10.50;9.05;;;;;;;;;;5074268;28;20115;-60
2022/09/08 01:23:51;;;;;;;11.27;9.88;;;;;;;;;;5069622;28;20067;-61
2022/09/08 01:26:29;;;;;;;15.60;11.30;;;;;;;;;;5064564;28;20090;-61
2022/09/08 01:29:00;;;;;;;17.48;10.52;;;;;;;;;;5064145;28;20055;-61
2022/09/08 01:31:27;;;;;;;12.05;10.52;;;;;;;;;;5067783;28;20105;-61
2022/09/08 01:33:53;;;;;;;11.63;10.32;;;;;;;;;;5066422;28;20081;-61
2022/09/08 01:36:19;;;;;;;13.75;11.50;;;;;;;;;;5065315;28;20051;-61
2022/09/08 01:38:46;;;;;;;12.73;11.30;;;;;;;;;;5071764;28;20048;-61
2022/09/08 01:41:13;;;;;;;13.07;11.60;;;;;;;;;;5066509;28;20037;-61
2022/09/08 01:43:40;;;;;;;13.88;12.00;;;;;;;;;;5067284;28;20645;-61
2022/09/08 01:46:06;;;;;;;13.30;11.70;;;;;;;;;;5067480;28;20037;-61
2022/09/08 01:48:32;;;;;;;16.17;13.43;;;;;;;;;;5069988;28;20485;-61
2022/09/08 01:51:03;;;;;;;15.48;12.68;;;;;;;;;;5074170;28;20043;-61
2022/09/08 01:53:29;;;;;;;14.20;11.48;;;;;;;;;;5068883;28;20836;-61
2022/09/08 01:55:56;;;;;;;26.85;14.38;;;;;;;;;;5068476;28;20531;-61
2022/09/08 01:58:22;;;;;;;18.40;12.57;;;;;;;;;;5071607;28;20454;-61
2022/09/08 02:00:48;;;;;;;16.33;13.40;;;;;;;;;;5077416;28;20036;-61
2022/09/08 02:03:14;;;;;;;15.77;12.95;;;;;;;;;;5067858;28;20454;-61
2022/09/08 02:05:41;;;;;;;16.13;13.65;;;;;;;;;;5077670;28;20051;-61
2022/09/08 02:08:08;;;;;;;14.95;11.95;;;;;;;;;;5066162;28;20094;-61
2022/09/08 02:10:34;;;;;;;14.82;12.63;;;;;;;;;;5076319;28;20031;-60
2022/09/08 02:13:02;;;;;;;15.38;13.07;;;;;;;;;;5079822;28;20040;-61
2022/09/08 02:15:28;;;;;;;17.35;14.15;;;;;;;;;;5080449;28;20040;-61
2022/09/08 02:17:54;;;;;;;17.27;14.68;;;;;;;;;;5080859;28;20407;-61
2022/09/08 02:20:22;;;;;;;16.58;14.30;;;;;;;;;;5068838;28;20105;-60
2022/09/08 02:22:48;;;;;;;17.23;12.80;;;;;;;;;;5071499;28;20040;-61
2022/09/08 02:25:14;;;;;;;20.42;15.07;;;;;;;;;;5074676;28;20089;-61
2022/09/08 02:27:40;;;;;;;18.33;14.90;;;;;;;;;;5066925;28;20143;-61
2022/09/08 02:30:07;;;;;;;21.52;16.23;;;;;;;;;;5077422;28;20089;-61
2022/09/08 02:32:35;;;;;;;15.73;13.35;;;;;;;;;;5073909;28;20431;-61
2022/09/08 02:35:01;;;;;;;19.83;16.23;;;;;;;;;;5076167;28;20448;-61
2022/09/08 02:37:27;;;;;;;19.65;15.88;;;;;;;;;;5074912;28;20785;-60
2022/09/08 02:39:54;;;;;;;18.10;14.65;;;;;;;;;;5072327;28;20521;-61
2022/09/08 02:42:20;;;;;;;19.70;16.67;;;;;;;;;;5077351;28;20503;-61
2022/09/08 02:44:46;;;;;;;21.67;16.73;;;;;;;;;;5068854;28;20051;-61
2022/09/08 02:47:12;;;;;;;17.30;15.40;;;;;;;;;;5075265;28;20052;-61
2022/09/08 02:49:38;;;;;;;19.33;16.25;;;;;;;;;;5077974;28;20097;-61
2022/09/08 02:52:05;;;;;;;20.95;16.88;;;;;;;;;;5075734;28;20610;-61
2022/09/08 02:54:31;;;;;;;22.42;19.38;;;;;;;;;;5072832;28;20041;-61
2022/09/08 02:56:57;;;;;;;20.90;16.80;;;;;;;;;;5068321;28;20506;-61
2022/09/08 02:59:23;;;;;;;26.50;20.60;;;;;;;;;;5069186;28;20048;-61
2022/09/08 03:01:49;;;;;;;25.10;18.02;;;;;;;;;;5075324;28;20105;-61
2022/09/08 03:04:16;;;;;;;21.92;17.23;;;;;;;;;;5075151;28;20040;-61
2022/09/08 03:06:43;;;;;;;24.83;20.17;;;;;;;;;;5082669;28;20042;-61
2022/09/08 03:09:09;;;;;;;21.52;19.30;;;;;;;;;;5077960;28;20045;-61
2022/09/08 03:11:35;;;;;;;23.85;19.58;;;;;;;;;;5070521;28;20083;-61
2022/09/08 03:14:02;;;;;;;22.52;19.85;;;;;;;;;;5076152;28;20085;-61
2022/09/08 03:16:28;;;;;;;29.45;22.23;;;;;;;;;;5076415;28;20407;-61
2022/09/08 03:18:55;;;;;;;24.90;19.92;;;;;;;;;;5083213;28;20063;-61
2022/09/08 03:21:21;;;;;;;28.95;21.48;;;;;;;;;;5076751;28;20048;-61
2022/09/08 03:23:48;;;;;;;22.50;18.30;;;;;;;;;;5071265;28;20425;-61
2022/09/08 03:26:18;;;;;;;26.20;19.80;;;;;;;;;;5072890;28;20325;-61
2022/09/08 03:28:45;;;;;;;24.45;20.13;;;;;;;;;;5077086;28;20036;-61
2022/09/08 03:31:15;;;;;;;26.08;21.52;;;;;;;;;;5082935;28;20031;-61
2022/09/08 03:33:41;;;;;;;24.08;19.90;;;;;;;;;;5083960;28;20122;-61
2022/09/08 03:36:09;;;;;;;23.73;19.63;;;;;;;;;;5067628;28;20048;-61
2022/09/08 03:38:35;;;;;;;23.33;20.63;;;;;;;;;;5067554;28;20088;-61
2022/09/08 03:41:06;;;;;;;29.08;22.55;;;;;;;;;;5074609;28;20043;-61
2022/09/08 03:43:32;;;;;;;27.70;22.20;;;;;;;;;;5074482;28;20050;-61
2022/09/08 03:45:58;;;;;;;24.83;20.25;;;;;;;;;;5070036;28;20040;-61
2022/09/08 03:48:24;;;;;;;25.98;21.52;;;;;;;;;;5078658;28;20044;-61
2022/09/08 03:50:50;;;;;;;23.58;19.83;;;;;;;;;;5064369;28;20149;-61
2022/09/08 03:53:17;;;;;;;22.13;19.13;;;;;;;;;;5070319;28;20438;-61
2022/09/08 03:55:43;;;;;;;22.90;19.42;;;;;;;;;;5065356;28;20052;-61
2022/09/08 03:58:10;;;;;;;28.55;22.67;;;;;;;;;;5075832;28;20080;-61
2022/09/08 04:00:38;;;;;;;29.98;22.73;;;;;;;;;;5081690;28;20444;-61
2022/09/08 04:03:05;;;;;;;25.85;22.35;;;;;;;;;;5071610;28;20093;-61
2022/09/08 04:05:31;;;;;;;29.35;23.35;;;;;;;;;;5068992;28;20040;-61
2022/09/08 04:07:58;;;;;;;23.92;20.83;;;;;;;;;;5074816;28;20035;-61
2022/09/08 04:10:24;;;;;;;24.38;19.30;;;;;;;;;;5073772;28;20638;-61
2022/09/08 04:12:50;;;;;;;30.02;23.10;;;;;;;;;;5075248;28;20144;-61
2022/09/08 04:15:16;;;;;;;25.42;19.80;;;;;;;;;;5079149;28;20037;-61
2022/09/08 04:17:44;;;;;;;24.60;21.83;;;;;;;;;;5073095;28;20492;-61
2022/09/08 04:20:10;;;;;;;27.85;23.38;;;;;;;;;;5069228;28;20082;-61
2022/09/08 04:22:36;;;;;;;28.25;25.17;;;;;;;;;;5077229;28;20036;-61
2022/09/08 04:25:02;;;;;;;30.23;24.90;;;;;;;;;;5067367;28;20048;-61
2022/09/08 04:27:29;;;;;;;29.02;25.75;;;;;;;;;;5063011;28;20041;-61
2022/09/08 04:29:55;;;;;;;30.20;24.00;;;;;;;;;;5066013;28;20048;-61
2022/09/08 04:32:21;;;;;;;27.58;22.10;;;;;;;;;;5071962;28;20043;-61
2022/09/08 04:34:51;;;;;;;26.27;21.45;;;;;;;;;;5069188;28;20410;-61
2022/09/08 04:37:17;;;;;;;23.48;20.98;;;;;;;;;;5074541;28;20028;-61
2022/09/08 04:39:44;;;;;;;27.48;22.48;;;;;;;;;;5067887;28;20063;-61
2022/09/08 04:42:10;;;;;;;30.23;23.80;;;;;;;;;;5074308;28;20142;-61
2022/09/08 04:44:36;;;;;;;29.80;22.88;;;;;;;;;;5065147;28;20422;-61
2022/09/08 04:47:02;;;;;;;25.70;20.48;;;;;;;;;;5064230;28;20111;-61
2022/09/08 04:49:29;;;;;;;29.23;20.77;;;;;;;;;;5069171;28;20124;-61
2022/09/08 04:51:58;;;;;;;24.13;21.52;;;;;;;;;;5079621;28;20495;-61
2022/09/08 04:54:24;;;;;;;27.98;22.63;;;;;;;;;;5064451;28;20044;-61
2022/09/08 04:56:50;;;;;;;27.70;23.42;;;;;;;;;;5068125;28;20067;-61
2022/09/08 04:59:17;;;;;;;22.58;19.50;;;;;;;;;;5076801;28;20045;-61
2022/09/08 05:01:43;;;;;;;26.33;23.55;;;;;;;;;;5071134;28;20043;-61
2022/09/08 05:04:10;;;;;;;29.52;23.13;;;;;;;;;;5063605;28;20036;-61
2022/09/08 05:06:36;;;;;;;28.98;23.55;;;;;;;;;;5073008;28;20047;-61
2022/09/08 05:09:03;;;;;;;24.50;21.13;;;;;;;;;;5068387;28;20055;-61
2022/09/08 05:11:31;;;;;;;29.23;24.60;;;;;;;;;;5063663;28;20072;-61
2022/09/08 05:13:58;;;;;;;28.30;23.27;;;;;;;;;;5061591;28;20040;-61
2022/09/08 05:16:26;;;;;;;28.08;24.08;;;;;;;;;;5070232;28;20042;-61
2022/09/08 05:18:53;;;;;;;24.08;21.20;;;;;;;;;;5064490;28;20467;-61
2022/09/08 05:21:20;;;;;;;26.88;23.98;;;;;;;;;;5065041;28;20501;-61
2022/09/08 05:23:48;;;;;;;31.15;23.02;;;;;;;;;;5063469;28;20036;-61
2022/09/08 05:26:15;;;;;;;25.98;23.17;;;;;;;;;;5068493;28;20040;-61
2022/09/08 05:28:42;;;;;;;25.52;22.27;;;;;;;;;;5064691;28;20500;-61
2022/09/08 05:31:13;;;;;;;26.25;22.63;;;;;;;;;;5071012;28;20157;-61
2022/09/08 05:33:39;;;;;;;28.77;22.33;;;;;;;;;;5062739;28;20040;-61
2022/09/08 05:36:19;;;;;;;27.65;23.33;;;;;;;;;;5067542;28;20044;-61
2022/09/08 05:38:46;;;;;;;25.90;22.73;;;;;;;;;;5071304;28;20051;-60
2022/09/08 05:41:13;;;;;;;32.03;23.90;;;;;;;;;;5070363;28;20032;-61
2022/09/08 05:43:40;;;;;;;28.10;23.67;;;;;;;;;;5068689;28;20031;-61
2022/09/08 05:46:06;;;;;;;32.53;24.05;;;;;;;;;;5069181;28;20406;-61
2022/09/08 05:48:32;;;;;;;27.30;22.00;;;;;;;;;;5064905;28;20044;-61
2022/09/08 05:50:59;;;;;;;27.88;22.15;;;;;;;;;;5065732;28;20536;-61
2022/09/08 05:53:25;;;;;;;27.63;23.42;;;;;;;;;;5080104;28;20830;-61
2022/09/08 05:55:57;;;;;;;28.10;22.45;;;;;;;;;;5064915;28;20465;-61
2022/09/08 05:58:23;;;;;;;29.52;25.17;;;;;;;;;;5069743;28;20485;-61
2022/09/08 06:01:19;;;;;;;29.90;23.48;;;;;;;;;;5068025;28;20460;-61
2022/09/08 06:03:45;;;;;;;26.60;23.45;;;;;;;;;;5049083;28;20048;-61
2022/09/08 06:06:13;;;;;;;27.30;22.30;;;;;;;;;;5064646;28;20127;-60
2022/09/08 06:08:40;;;;;;;29.52;24.30;;;;;;;;;;5064561;28;21008;-61
2022/09/08 06:11:07;;;;;;;31.17;24.35;;;;;;;;;;5066805;28;20502;-61
2022/09/08 06:13:33;;;;;;;32.63;25.40;;;;;;;;;;5064625;28;20044;-61
2022/09/08 06:16:04;;;;;;;28.52;23.83;;;;;;;;;;5064622;28;20040;-61
2022/09/08 06:18:32;;;;;;;28.13;24.30;;;;;;;;;;5064619;28;20058;-61
2022/09/08 06:20:58;;;;;;;29.65;24.83;;;;;;;;;;5066345;28;20490;-61
2022/09/08 06:23:24;;;;;;;31.33;23.85;;;;;;;;;;5064452;28;20041;-61
2022/09/08 06:25:50;;;;;;;27.27;23.30;;;;;;;;;;5069795;28;20046;-61
2022/09/08 06:28:16;;;;;;;29.15;22.88;;;;;;;;;;5070792;28;20077;-61
2022/09/08 06:30:46;;;;;;;31.40;22.88;;;;;;;;;;5067123;28;20080;-61
2022/09/08 06:33:14;;;;;;;30.98;26.23;;;;;;;;;;5066095;28;20044;-61
2022/09/08 06:35:40;;;;;;;28.40;24.55;;;;;;;;;;5062900;28;20072;-61
2022/09/08 06:38:14;;;;;;;30.33;24.88;;;;;;;;;;5065577;28;20080;-61
2022/09/08 06:40:42;;;;;;;33.25;25.77;;;;;;;;;;5063967;28;20495;-61
2022/09/08 06:43:11;;;;;;;35.97;27.02;;;;;;;;;;5069370;28;20123;-61
2022/09/08 06:45:40;;;;;;;31.35;25.30;;;;;;;;;;5074304;28;20079;-61
2022/09/08 06:48:09;;;;;;;39.65;29.17;;;;;;;;;;5063414;28;20070;-60
2022/09/08 06:50:38;;;;;;;31.35;24.83;;;;;;;;;;5067505;28;20040;-60
2022/09/08 06:53:06;;;;;;;36.95;27.58;;;;;;;;;;5064617;28;20257;-61
2022/09/08 06:55:32;;;;;;;33.55;25.35;;;;;;;;;;5070210;28;20060;-60
2022/09/08 06:58:07;;;;;;;41.08;25.55;;;;;;;;;;5067921;28;20177;-61
2022/09/08 07:00:56;;;;;;;32.00;23.48;;;;;;;;;;5067984;28;20040;-60
2022/09/08 07:03:25;;;;;;;26.27;21.67;;;;;;;;;;5061394;28;20504;-60
2022/09/08 07:05:54;;;;;;;26.05;20.90;;;;;;;;;;5078806;28;20051;-60
2022/09/08 07:08:39;;;;;;;30.33;23.20;;;;;;;;;;5067607;28;20044;-61
2022/09/08 07:11:24;;;;;;;27.02;23.95;;;;;;;;;;5067857;28;20044;-60
2022/09/08 07:14:05;;;;;;;25.90;21.70;;;;;;;;;;5067071;28;20090;-60
2022/09/08 07:16:39;;;;;;;30.35;21.60;;;;;;;;;;5069192;28;20577;-60
2022/09/08 07:19:12;;;;;;;27.73;22.70;;;;;;;;;;5076158;28;20036;-60
2022/09/08 07:21:44;;;;;;;29.95;23.08;;;;;;;;;;5066518;28;20044;-61
2022/09/08 07:24:10;;;;;;;;;;;;;;;;;;5067553;28;20045;-60
2022/09/08 07:26:56;;;;;;;27.92;22.52;;;;;;;;;;5067853;28;19947;-61
2022/09/08 07:29:30;;;;;;;29.83;23.38;;;;;;;;;;5065886;28;20072;-60
2022/09/08 07:31:58;;;;;;;34.13;22.48;;;;;;;;;;5067102;28;20101;-60
2022/09/08 07:34:28;;;;;;;24.67;19.25;;;;;;;;;;5066286;28;20043;-61
2022/09/08 07:37:00;;;;;;;17.73;14.30;;;;;;;;;;5075258;28;20060;-61
2022/09/08 07:39:38;;;;;;;17.85;13.40;;;;;;;;;;5069442;28;20135;-60
2022/09/08 07:42:05;;;;;;;12.75;10.77;;;;;;;;;;5070297;28;20501;-60
2022/09/08 07:44:33;;;;;;;12.02;9.48;;;;;;;;;;5074443;28;20041;-60
2022/09/08 07:47:18;;;;;;;12.32;7.55;;;;;;;;;;5065901;28;20376;-61
2022/09/08 07:50:03;;;;;;;9.57;6.03;;;;;;;;;;5066153;28;20052;-61
2022/09/08 07:53:02;;;;;;;8.10;4.80;;;;;;;;;;5073831;28;20032;-60
2022/09/08 07:55:37;;;;;;;8.80;4.82;;;;;;;;;;5040131;28;20183;-60
2022/09/08 07:58:06;;;;;;;5.35;2.80;;;;;;;;;;5071515;28;20052;-60
2022/09/08 08:00:36;;;;;;;2.97;2.47;;;;;;;;;;5082604;28;20127;-60
2022/09/08 08:03:16;;;;;;;5.93;2.67;;;;;;;;;;5073502;28;20083;-60
2022/09/08 08:05:51;;;;;;;5.30;2.83;;;;;;;;;;5075833;28;20388;-60
2022/09/08 08:08:21;;;;;;;5.38;2.63;;;;;;;;;;5071205;28;20554;-60
2022/09/08 08:10:55;;;;;;;4.15;2.88;;;;;;;;;;5076229;28;20127;-60
2022/09/08 08:13:31;;;;;;;3.38;2.60;;;;;;;;;;5078795;28;20036;-60
2022/09/08 08:15:57;;;;;;;3.85;1.60;;;;;;;;;;5077061;28;20036;-60
2022/09/08 08:18:26;;;;;;;1.98;1.52;;;;;;;;;;5069013;28;20035;-60
2022/09/08 08:20:53;;;;;;;4.07;1.90;;;;;;;;;;5075060;28;20048;-60
2022/09/08 08:23:25;;;;;;;2.53;1.65;;;;;;;;;;5071580;28;20044;-60
2022/09/08 08:26:04;;;;;;;3.00;1.30;;;;;;;;;;5072698;28;20035;-60
2022/09/08 08:28:35;;;;;;;2.72;1.48;;;;;;;;;;5066062;28;20090;-60
2022/09/08 08:31:20;;;;;;;1.73;1.10;;;;;;;;;;5069147;28;20097;-60
2022/09/08 08:33:57;;;;;;;2.13;1.25;;;;;;;;;;5071063;28;20071;-60
2022/09/08 08:36:25;;;;;;;3.45;1.20;;;;;;;;;;5072253;28;20084;-60
2022/09/08 08:38:56;;;;;;;2.30;1.20;;;;;;;;;;5066283;28;20127;-60
2022/09/08 08:41:40;;;;;;;2.28;1.42;;;;;;;;;;5077218;28;20048;-60
2022/09/08 08:44:24;;;;;;;3.80;2.33;;;;;;;;;;5077656;28;20044;-60
2022/09/08 08:46:51;;;;;;;3.03;1.67;;;;;;;;;;5070881;28;20480;-60
2022/09/08 08:49:24;;;;;;;3.00;1.83;;;;;;;;;;5071402;28;20044;-60
2022/09/08 08:51:53;;;;;;;4.40;1.77;;;;;;;;;;5069334;28;20490;-60
2022/09/08 08:54:38;;;;;;;3.80;1.50;;;;;;;;;;5073225;28;20286;-60
2022/09/08 08:57:13;;;;;;;3.90;1.80;;;;;;;;;;5065115;28;20057;-61
2022/09/08 08:59:59;;;;;;;2.85;1.45;;;;;;;;;;5070245;28;20048;-60
2022/09/08 09:02:25;;;;;;;3.10;1.38;;;;;;;;;;5068453;28;20554;-60
2022/09/08 09:04:54;;;;;;;3.88;1.23;;;;;;;;;;5073680;28;20395;-61
2022/09/08 09:07:26;;;;;;;2.65;1.58;;;;;;;;;;5077468;28;20051;-60
2022/09/08 09:10:10;;;;;;;2.30;1.50;;;;;;;;;;5082004;28;20071;-60
2022/09/08 09:12:36;;;;;;;3.20;1.60;;;;;;;;;;5068389;28;20119;-60
2022/09/08 09:15:02;;;;;;;3.03;1.30;;;;;;;;;;5068952;28;20044;-60
2022/09/08 09:17:29;;;;;;;1.60;1.20;;;;;;;;;;5076665;28;20036;-61
2022/09/08 09:20:03;;;;;;;2.33;1.27;;;;;;;;;;5069038;28;20080;-60
2022/09/08 09:22:56;;;;;;;2.90;1.70;;;;;;;;;;5068940;28;20040;-60
2022/09/08 09:25:33;;;;;;;2.63;1.55;;;;;;;;;;5067495;28;20048;-60
2022/09/08 09:28:18;;;;;;;1.00;0.90;;;;;;;;;;5069558;28;20047;-60
2022/09/08 09:31:03;;;;;;;4.35;1.30;;;;;;;;;;5070791;28;20527;-60
2022/09/08 09:33:29;;;;;;;2.63;1.13;;;;;;;;;;5081953;28;20380;-60
2022/09/08 09:35:55;;;;;;;2.63;1.60;;;;;;;;;;5064975;28;20055;-60
2022/09/08 09:38:21;;;;;;;3.00;1.20;;;;;;;;;;5080309;28;20331;-60
2022/09/08 09:41:05;;;;;;;2.10;1.30;;;;;;;;;;5071044;28;20044;-60
2022/09/08 09:43:38;;;;;;;1.52;1.30;;;;;;;;;;5071237;28;20534;-60
2022/09/08 09:46:34;;;;;;;1.73;1.33;;;;;;;;;;5070450;28;20079;-60
2022/09/08 09:49:21;;;;;;;11.73;1.73;;;;;;;;;;5061755;28;20048;-60
2022/09/08 09:52:14;;;;;;;2.05;1.27;;;;;;;;;;5077805;28;20040;-60
2022/09/08 09:54:58;;;;;;;1.80;1.20;;;;;;;;;;5048419;28;20059;-61
2022/09/08 09:57:36;;;;;;;1.70;1.02;;;;;;;;;;5071289;28;20499;-60
2022/09/08 10:00:10;;;;;;;1.63;0.88;;;;;;;;;;5069539;28;20407;-60
2022/09/08 10:02:51;;;;;;;1.55;0.95;;;;;;;;;;5073855;28;20166;-60
2022/09/08 10:05:23;;;;;;;1.95;1.42;;;;;;;;;;5066427;28;20483;-60
2022/09/08 10:08:00;;;;;;;1.33;0.90;;;;;;;;;;5072330;28;20517;-60
2022/09/08 10:10:26;;;;;;;2.05;1.25;;;;;;;;;;5069333;28;20713;-60
2022/09/08 10:13:08;;;;;;;1.33;0.95;;;;;;;;;;5078884;28;20155;-61
2022/09/08 10:15:34;;;;;;;2.30;1.63;;;;;;;;;;5068994;28;20075;-60
2022/09/08 10:18:19;;;;;;;1.27;0.90;;;;;;;;;;5072469;28;20048;-60
2022/09/08 10:20:51;;;;;;;2.10;1.42;;;;;;;;;;5070556;28;20044;-60
2022/09/08 10:23:17;;;;;;;2.00;1.15;;;;;;;;;;5064964;28;20186;-60
2022/09/08 10:25:52;;;;;;;3.45;1.70;;;;;;;;;;5080734;28;20105;-60
2022/09/08 10:28:37;;;;;;;3.10;1.75;;;;;;;;;;5077427;28;20047;-60
2022/09/08 10:31:06;;;;;;;2.63;1.85;;;;;;;;;;5079105;28;20040;-60
2022/09/08 10:33:36;;;;;;;5.25;2.42;;;;;;;;;;5073080;28;20469;-60
2022/09/08 10:36:07;;;;;;;3.35;2.25;;;;;;;;;;5070522;28;20500;-60
2022/09/08 10:38:37;;;;;;;3.85;2.35;;;;;;;;;;5075424;28;20155;-61
2022/09/08 10:41:10;;;;;;;5.75;2.63;;;;;;;;;;5070790;28;20408;-60
2022/09/08 10:43:39;;;;;;;6.43;3.75;;;;;;;;;;5078336;28;20140;-60
2022/09/08 10:46:05;;;;;;;3.88;3.42;;;;;;;;;;5072921;28;20097;-60
2022/09/08 10:48:50;;;;;;;4.82;3.60;;;;;;;;;;5074798;28;20417;-60
2022/09/08 10:51:22;;;;;;;6.05;3.30;;;;;;;;;;5072603;28;20044;-60
2022/09/08 10:54:07;;;;;;;4.80;3.08;;;;;;;;;;5072825;28;20499;-60
2022/09/08 10:56:33;;;;;;;6.13;3.47;;;;;;;;;;5082005;28;20116;-60
2022/09/08 10:59:05;;;;;;;3.55;2.25;;;;;;;;;;5069289;28;20491;-60
2022/09/08 11:01:31;;;;;;;2.33;1.97;;;;;;;;;;5072109;28;20139;-60
2022/09/08 11:04:06;;;;;;;2.47;1.77;;;;;;;;;;5075609;28;20278;-60
2022/09/08 11:06:39;;;;;;;2.03;1.58;;;;;;;;;;5079078;28;20044;-60
2022/09/08 11:09:05;;;;;;;;;;;;;;;;;;5068534;28;20037;-60
2022/09/08 11:11:34;;;;;;;2.70;1.50;;;;;;;;;;5073872;28;20384;-60
2022/09/08 11:14:00;;;;;;;3.88;1.13;;;;;;;;;;5077021;28;20029;-60
2022/09/08 11:16:36;;;;;;;5.88;1.40;;;;;;;;;;5069370;28;20040;-61
2022/09/08 11:19:22;;;;;;;2.88;1.10;;;;;;;;;;5080909;28;20032;-60
2022/09/08 11:22:07;;;;;;;2.05;1.50;;;;;;;;;;5070083;28;20059;-61
2022/09/08 11:24:43;;;;;;;2.35;1.42;;;;;;;;;;5069473;28;20143;-61
2022/09/08 11:27:17;;;;;;;2.33;1.30;;;;;;;;;;5074303;28;20036;-60
2022/09/08 11:29:45;;;;;;;3.40;1.23;;;;;;;;;;5072890;28;20388;-61
2022/09/08 11:32:31;;;;;;;4.25;1.75;;;;;;;;;;5072197;28;20040;-60
2022/09/08 11:35:04;;;;;;;2.72;1.40;;;;;;;;;;5075347;28;20048;-61
2022/09/08 11:37:30;;;;;;;;;;;;;;;;;;5083795;28;20521;-60
2022/09/08 11:40:04;;;;;;;2.55;1.30;;;;;;;;;;5068577;28;19920;-61
2022/09/08 11:42:33;;;;;;;2.40;1.30;;;;;;;;;;5071267;28;20040;-60
2022/09/08 11:45:16;;;;;;;2.20;1.30;;;;;;;;;;5070351;28;20040;-60
2022/09/08 11:47:42;;;;;;;5.60;1.30;;;;;;;;;;5071609;28;20044;-60
2022/09/08 11:50:15;;;;;;;2.95;1.30;;;;;;;;;;5072898;28;20503;-60
2022/09/08 11:52:50;;;;;;;3.05;1.10;;;;;;;;;;5072961;28;20055;-61
2022/09/08 11:55:27;;;;;;;2.67;1.50;;;;;;;;;;5073041;28;20028;-60
2022/09/08 11:58:12;;;;;;;2.42;0.93;;;;;;;;;;5072062;28;20050;-61
2022/09/08 12:00:50;;;;;;;2.35;1.27;;;;;;;;;;5074639;28;20101;-61
2022/09/08 12:03:19;;;;;;;3.13;1.63;;;;;;;;;;5071446;28;20485;-61
2022/09/08 12:06:04;;;;;;;3.28;2.38;;;;;;;;;;5076776;28;20049;-61
2022/09/08 12:08:30;;;;;;;4.43;2.00;;;;;;;;;;5072462;28;20040;-60
2022/09/08 12:11:15;;;;;;;2.95;1.80;;;;;;;;;;5078318;28;20465;-61
2022/09/08 12:13:44;;;;;;;4.43;2.35;;;;;;;;;;5083798;28;20035;-60
2022/09/08 12:16:16;;;;;;;5.00;2.33;;;;;;;;;;5082461;28;20036;-60
2022/09/08 12:18:56;;;;;;;4.20;2.78;;;;;;;;;;5071297;28;20044;-60
2022/09/08 12:21:28;;;;;;;5.82;2.70;;;;;;;;;;5071664;28;20032;-61
2022/09/08 12:24:03;;;;;;;3.50;2.67;;;;;;;;;;5071267;28;20438;-60
2022/09/08 12:26:48;;;;;;;3.17;1.52;;;;;;;;;;5072283;28;20078;-61
2022/09/08 12:29:14;;;;;;;4.65;3.40;;;;;;;;;;5078710;28;20083;-60
2022/09/08 12:31:52;;;;;;;4.20;2.92;;;;;;;;;;5068963;28;20048;-60
2022/09/08 12:34:31;;;;;;;4.78;3.20;;;;;;;;;;5074742;28;20509;-60
2022/09/08 12:37:17;;;;;;;5.30;3.85;;;;;;;;;;5071864;28;20094;-60
2022/09/08 12:40:02;;;;;;;6.65;5.07;;;;;;;;;;5059883;28;20048;-60
2022/09/08 12:42:31;;;;;;;6.53;4.20;;;;;;;;;;5073260;28;20047;-60
2022/09/08 12:45:03;;;;;;;7.68;4.20;;;;;;;;;;5065695;28;20044;-60
2022/09/08 12:47:35;;;;;;;7.63;4.43;;;;;;;;;;5079120;28;20043;-61
2022/09/08 12:50:08;;;;;;;7.53;5.07;;;;;;;;;;5075336;28;20040;-60
2022/09/08 12:52:40;;;;;;;6.72;4.75;;;;;;;;;;5069032;28;20420;-60
2022/09/08 12:55:16;;;;;;;19.85;5.50;;;;;;;;;;5070543;28;20089;-61
2022/09/08 12:57:46;;;;;;;7.03;4.88;;;;;;;;;;5071561;28;20059;-61
2022/09/08 13:00:17;;;;;;;6.88;5.28;;;;;;;;;;5069489;28;20051;-60
2022/09/08 13:03:03;;;;;;;10.07;5.97;;;;;;;;;;5075433;28;20479;-61
2022/09/08 13:05:47;;;;;;;8.48;5.53;;;;;;;;;;5069634;28;20411;-61
2022/09/08 13:08:31;;;;;;;6.75;5.07;;;;;;;;;;5071108;28;20461;-60
2022/09/08 13:11:05;;;;;;;16.38;5.72;;;;;;;;;;5072942;28;20045;-60
2022/09/08 13:13:33;;;;;;;8.52;5.07;;;;;;;;;;5072641;28;20581;-60
2022/09/08 13:16:05;;;;;;;10.57;4.95;;;;;;;;;;5073169;28;20036;-60
2022/09/08 13:18:53;;;;;;;9.73;5.75;;;;;;;;;;5070122;28;20384;-60
2022/09/08 13:21:31;;;;;;;7.35;4.97;;;;;;;;;;5082771;28;20434;-61
2022/09/08 13:24:17;;;;;;;11.52;7.05;;;;;;;;;;5065859;28;20115;-60
2022/09/08 13:26:49;;;;;;;7.30;5.32;;;;;;;;;;5034188;28;20503;-61
2022/09/08 13:29:28;;;;;;;9.18;6.35;;;;;;;;;;5069565;28;20055;-60
2022/09/08 13:32:20;;;;;;;10.18;5.78;;;;;;;;;;5076978;28;20052;-60
2022/09/08 13:35:00;;;;;;;13.15;7.45;;;;;;;;;;5062687;28;20062;-60
2022/09/08 13:37:35;;;;;;;9.50;6.47;;;;;;;;;;5081554;28;20072;-60
2022/09/08 13:40:10;;;;;;;9.90;7.25;;;;;;;;;;5065437;28;20590;-61
2022/09/08 13:42:43;;;;;;;9.30;6.70;;;;;;;;;;5068903;28;20390;-60
2022/09/08 13:45:09;;;;;;;12.90;7.50;;;;;;;;;;5073370;28;20082;-61
2022/09/08 13:47:54;;;;;;;11.13;7.43;;;;;;;;;;5075250;28;20044;-60
2022/09/08 13:50:29;;;;;;;10.63;7.85;;;;;;;;;;5065497;28;20139;-60
2022/09/08 13:53:03;;;;;;;13.90;8.80;;;;;;;;;;5068347;28;20105;-61
2022/09/08 13:55:41;;;;;;;13.32;9.27;;;;;;;;;;5070349;28;20044;-60
2022/09/08 13:58:16;;;;;;;11.68;8.00;;;;;;;;;;5069144;28;20056;-61
2022/09/08 14:01:01;;;;;;;13.68;8.93;;;;;;;;;;5073734;28;20064;-60
2022/09/08 14:03:29;;;;;;;11.23;8.77;;;;;;;;;;5065712;28;20051;-60
2022/09/08 14:05:56;;;;;;;11.15;9.07;;;;;;;;;;5076180;28;20407;-61
2022/09/08 14:08:24;;;;;;;10.07;8.38;;;;;;;;;;5073556;28;20080;-61
2022/09/08 14:11:09;;;;;;;9.68;7.70;;;;;;;;;;5080718;28;20613;-60
2022/09/08 14:13:36;;;;;;;9.80;8.05;;;;;;;;;;5082745;28;20048;-60
2022/09/08 14:16:18;;;;;;;10.52;8.48;;;;;;;;;;5080713;28;20610;-60
2022/09/08 14:18:54;;;;;;;12.32;8.80;;;;;;;;;;5073138;28;20047;-60
2022/09/08 14:21:39;;;;;;;11.77;9.07;;;;;;;;;;5056636;28;20044;-60
2022/09/08 14:24:05;;;;;;;17.08;9.20;;;;;;;;;;5073226;28;20062;-60
2022/09/08 14:26:42;;;;;;;16.08;9.52;;;;;;;;;;5084119;28;20051;-60
2022/09/08 14:29:08;;;;;;;7.93;5.45;;;;;;;;;;5070887;28;20033;-60
2022/09/08 14:31:41;;;;;;;6.95;5.75;;;;;;;;;;5075910;28;20047;-61
2022/09/08 14:34:17;;;;;;;9.48;6.10;;;;;;;;;;5075473;28;20514;-60
2022/09/08 14:36:49;;;;;;;8.93;6.32;;;;;;;;;;5074026;28;20059;-61
2022/09/08 14:39:15;;;;;;;8.80;5.28;;;;;;;;;;5083117;28;20041;-61
2022/09/08 14:42:11;;;;;;;6.10;3.50;;;;;;;;;;5080498;28;20117;-61
2022/09/08 14:44:48;;;;;;;5.38;3.28;;;;;;;;;;5055551;28;20493;-61
2022/09/08 14:47:30;;;;;;;4.40;2.65;;;;;;;;;;5069124;28;20582;-61
2022/09/08 14:49:59;;;;;;;3.80;2.50;;;;;;;;;;5072586;28;20386;-61
2022/09/08 14:52:35;;;;;;;4.65;2.28;;;;;;;;;;5073273;28;20048;-60
2022/09/08 14:55:20;;;;;;;3.53;2.13;;;;;;;;;;5077715;28;20113;-61
2022/09/08 14:58:05;;;;;;;4.60;2.80;;;;;;;;;;5079408;28;20110;-61
2022/09/08 15:00:36;;;;;;;4.78;2.50;;;;;;;;;;5071617;28;20449;-61
2022/09/08 15:03:14;;;;;;;7.45;3.05;;;;;;;;;;5071073;28;20530;-61